Time;durP1;ratioP1;P1;durP2;ratioP2;P2;SDS_P1;SDS_P2;PMS_P1;PMS_P2;Temp;Humidity;BMP_temperature;BMP_pressure;BME280_temperature;BME280_humidity;BME280_pressure;Samples;Min_cycle;Max_cycle;Signal;HPM_P1;HPM_P2
2022/10/13 00:04:58;;;;;;;12.43;9.70;;;;;;;7.80;100.00;100547.09;10587663;28;20086;-71
2022/10/13 00:10:01;;;;;;;12.10;10.90;;;;;;;7.69;100.00;100546.34;10587781;28;20048;-71
2022/10/13 00:15:05;;;;;;;12.48;11.18;;;;;;;7.56;100.00;100549.97;10586451;28;20048;-71
2022/10/13 00:20:08;;;;;;;11.15;10.05;;;;;;;7.62;100.00;100551.69;10568737;28;20039;-71
2022/10/13 00:25:10;;;;;;;13.60;10.27;;;;;;;7.65;100.00;100546.38;10586434;28;20067;-71
2022/10/13 00:30:11;;;;;;;10.95;9.60;;;;;;;7.62;100.00;100554.28;10587283;28;20493;-71
2022/10/13 00:35:13;;;;;;;12.35;9.93;;;;;;;7.51;100.00;100550.03;10585900;28;20081;-71
2022/10/13 00:40:14;;;;;;;11.68;10.55;;;;;;;7.44;100.00;100552.75;10585454;28;20047;-71
2022/10/13 00:45:16;;;;;;;12.13;9.32;;;;;;;7.36;100.00;100542.34;10586050;28;20559;-71
2022/10/13 00:50:22;;;;;;;11.52;10.52;;;;;;;7.41;100.00;100550.16;10585568;28;20039;-71
2022/10/13 00:55:31;;;;;;;11.57;10.18;;;;;;;7.39;100.00;100546.66;10585649;28;20031;-71
2022/10/13 01:00:34;;;;;;;14.57;10.32;;;;;;;7.49;100.00;100543.97;10567093;28;20044;-71
2022/10/13 01:05:37;;;;;;;11.27;10.25;;;;;;;7.62;100.00;100530.75;10584413;28;20067;-71
2022/10/13 01:10:58;;;;;;;13.13;11.27;;;;;;;7.75;100.00;100535.81;10582140;28;20093;-71
2022/10/13 01:16:14;;;;;;;12.15;11.05;;;;;;;7.75;100.00;100533.19;10580643;28;20039;-71
2022/10/13 01:21:51;;;;;;;14.95;10.20;;;;;;;7.96;100.00;100536.41;10584845;28;20046;-71
2022/10/13 01:27:07;;;;;;;11.60;10.52;;;;;;;7.84;100.00;100526.97;10584333;28;20050;-71
2022/10/13 01:32:12;;;;;;;11.77;10.68;;;;;;;7.84;100.00;100529.59;10584468;28;20050;-71
2022/10/13 01:37:36;;;;;;;11.13;10.23;;;;;;;7.92;100.00;100519.00;10583249;28;20119;-71
2022/10/13 01:42:47;;;;;;;13.98;10.10;;;;;;;8.22;100.00;100512.50;10583876;28;20115;-71
2022/10/13 01:47:51;;;;;;;11.25;9.88;;;;;;;8.15;100.00;100509.09;10584504;28;20044;-71
2022/10/13 01:52:53;;;;;;;11.75;10.55;;;;;;;8.04;100.00;100505.75;10583309;28;20444;-71
2022/10/13 01:57:55;;;;;;;11.10;10.10;;;;;;;8.08;100.00;100502.22;10583283;28;20077;-71
2022/10/13 02:03:22;;;;;;;12.35;10.68;;;;;;;7.99;100.00;100497.09;10582774;28;20047;-71
2022/10/13 02:08:28;;;;;;;11.57;9.90;;;;;;;7.93;100.00;100500.69;10582543;28;20043;-70
2022/10/13 02:13:33;;;;;;;14.57;10.48;;;;;;;8.18;100.00;100497.72;10582516;28;20046;-71
2022/10/13 02:18:35;;;;;;;9.80;8.85;;;;;;;7.93;100.00;100487.59;10583128;28;20039;-71
2022/10/13 02:23:41;;;;;;;11.25;9.80;;;;;;;8.03;100.00;100494.44;10582265;28;20142;-71
2022/10/13 02:28:43;;;;;;;11.50;10.30;;;;;;;7.82;100.00;100495.56;10582982;28;20063;-71
2022/10/13 02:33:45;;;;;;;16.90;10.65;;;;;;;8.05;100.00;100489.16;10582860;28;20047;-71
2022/10/13 02:38:46;;;;;;;11.07;9.98;;;;;;;8.01;100.00;100484.84;10582304;28;20516;-71
2022/10/13 02:43:48;;;;;;;11.38;10.27;;;;;;;8.02;100.00;100490.09;10582202;28;20065;-71
2022/10/13 02:48:50;;;;;;;12.00;10.80;;;;;;;8.07;100.00;100490.03;10582005;28;20039;-70
2022/10/13 02:53:51;;;;;;;11.88;10.13;;;;;;;7.98;100.00;100487.53;10563825;28;20048;-72
2022/10/13 02:58:53;;;;;;;13.60;11.02;;;;;;;7.89;100.00;100483.28;10582450;28;20421;-71
2022/10/13 03:03:55;;;;;;;12.32;11.13;;;;;;;7.72;100.00;100485.25;10582916;28;20088;-71
2022/10/13 03:08:57;;;;;;;11.63;10.45;;;;;;;7.89;100.00;100480.66;10581798;28;20093;-71
2022/10/13 03:13:59;;;;;;;16.48;11.48;;;;;;;7.72;100.00;100482.66;10589562;28;20043;-71
2022/10/13 03:19:00;;;;;;;10.82;9.82;;;;;;;7.78;100.00;100480.78;10589410;28;20131;-71
2022/10/13 03:24:04;;;;;;;12.25;11.25;;;;;;;7.81;100.00;100477.28;10590681;28;20047;-72
2022/10/13 03:29:06;;;;;;;12.13;10.93;;;;;;;7.96;100.00;100470.97;10590839;28;20386;-71
2022/10/13 03:34:09;;;;;;;15.60;10.90;;;;;;;7.96;100.00;100463.97;10572388;28;20074;-71
2022/10/13 03:39:12;;;;;;;11.65;10.25;;;;;;;7.85;100.00;100460.66;10588442;28;20043;-71
2022/10/13 03:44:13;;;;;;;17.27;11.90;;;;;;;8.11;100.00;100464.66;10588864;28;20052;-71
2022/10/13 03:49:16;;;;;;;13.80;12.27;;;;;;;8.00;100.00;100470.91;10588088;28;20047;-70
2022/10/13 03:54:17;;;;;;;13.00;11.65;;;;;;;7.93;100.00;100476.25;10588344;28;20071;-71
2022/10/13 03:59:21;;;;;;;14.10;11.98;;;;;;;8.11;100.00;100472.50;10588173;28;20040;-71
2022/10/13 04:04:23;;;;;;;10.90;9.98;;;;;;;8.12;100.00;100466.38;10588213;28;20039;-71
2022/10/13 04:09:29;;;;;;;16.70;10.13;;;;;;;8.24;100.00;100467.06;10570876;28;20523;-71
2022/10/13 04:14:31;;;;;;;13.10;11.95;;;;;;;8.24;100.00;100468.81;10572896;28;20067;-75
2022/10/13 04:19:41;;;;;;;14.38;11.05;;;;;;;8.25;100.00;100458.31;10592444;28;20081;-75
2022/10/13 04:24:43;;;;;;;12.90;11.75;;;;;;;8.33;100.00;100452.97;10592726;28;20059;-75
2022/10/13 04:29:44;;;;;;;12.40;11.18;;;;;;;8.36;100.00;100452.91;10590717;28;20039;-76
2022/10/13 04:34:46;;;;;;;12.45;11.35;;;;;;;8.26;100.00;100451.31;10590926;28;20048;-75
2022/10/13 04:39:48;;;;;;;15.95;11.98;;;;;;;8.29;100.00;100454.75;10589717;28;20071;-75
2022/10/13 04:44:49;;;;;;;17.52;10.68;;;;;;;8.29;100.00;100453.91;10590031;28;20047;-75
2022/10/13 04:49:54;;;;;;;15.02;11.65;;;;;;;8.13;100.00;100452.41;10590043;28;20034;-74
2022/10/13 04:54:56;;;;;;;12.15;10.95;;;;;;;8.17;100.00;100446.22;10586931;28;20043;-74
2022/10/13 04:59:57;;;;;;;15.18;12.98;;;;;;;8.27;100.00;100439.94;10587791;28;20039;-74
2022/10/13 05:04:59;;;;;;;12.73;11.38;;;;;;;8.28;100.00;100439.09;10587061;28;20508;-75
2022/10/13 05:10:01;;;;;;;12.50;11.38;;;;;;;8.27;100.00;100430.34;10570210;28;20517;-75
2022/10/13 05:15:03;;;;;;;12.95;11.48;;;;;;;8.20;100.00;100430.47;10587750;28;20059;-74
2022/10/13 05:20:04;;;;;;;13.68;11.50;;;;;;;8.43;99.72;100424.91;10587214;28;20036;-74
2022/10/13 05:25:06;;;;;;;14.65;12.00;;;;;;;8.42;100.00;100425.78;10586586;28;20046;-74
2022/10/13 05:30:09;;;;;;;12.68;11.15;;;;;;;8.35;100.00;100422.34;10586174;28;20043;-74
2022/10/13 05:35:10;;;;;;;12.70;11.40;;;;;;;8.30;99.72;100418.97;10566856;28;20043;-74
2022/10/13 05:40:14;;;;;;;20.25;18.48;;;;;;;8.08;100.00;100421.91;10586241;28;20031;-75
2022/10/13 05:45:18;;;;;;;16.25;11.40;;;;;;;8.13;100.00;100416.59;10587141;28;20066;-74
2022/10/13 05:50:20;;;;;;;13.30;11.60;;;;;;;8.12;100.00;100416.63;10568417;28;20055;-75
2022/10/13 05:55:21;;;;;;;12.38;11.35;;;;;;;8.22;100.00;100418.22;10586650;28;20051;-74
2022/10/13 06:00:23;;;;;;;13.48;12.20;;;;;;;8.11;100.00;100428.00;10569233;28;20051;-75
2022/10/13 06:05:27;;;;;;;13.48;12.27;;;;;;;8.09;100.00;100426.25;10587280;28;20497;-74
2022/10/13 06:10:29;;;;;;;13.55;12.18;;;;;;;8.04;100.00;100422.84;10568343;28;20035;-75
2022/10/13 06:15:31;;;;;;;12.82;11.73;;;;;;;8.02;100.00;100415.91;10586516;28;20252;-75
2022/10/13 06:20:33;;;;;;;14.48;13.18;;;;;;;8.28;100.00;100420.75;10569215;28;20097;-76
2022/10/13 06:25:35;;;;;;;15.07;11.98;;;;;;;8.41;100.00;100417.06;10588499;28;20400;-75
2022/10/13 06:30:37;;;;;;;15.98;12.30;;;;;;;8.49;100.00;100428.25;10569973;28;20043;-76
2022/10/13 06:35:40;;;;;;;14.23;12.23;;;;;;;8.45;100.00;100426.56;10586880;28;20044;-76
2022/10/13 06:40:45;;;;;;;13.85;11.93;;;;;;;8.65;99.97;100430.63;10587899;28;20054;-75
2022/10/13 06:45:47;;;;;;;13.43;12.07;;;;;;;8.47;100.00;100431.81;10571212;28;20043;-76
2022/10/13 06:50:48;;;;;;;14.65;13.10;;;;;;;8.49;100.00;100443.97;10593967;28;20051;-75
2022/10/13 06:55:54;;;;;;;13.77;12.48;;;;;;;8.90;99.47;100450.28;10592102;28;20035;-75
2022/10/13 07:00:56;;;;;;;14.55;12.35;;;;;;;9.23;97.40;100445.28;10593798;28;20043;-75
2022/10/13 07:06:02;;;;;;;19.45;12.60;;;;;;;9.34;95.86;100448.53;10592665;28;20039;-75
2022/10/13 07:11:09;;;;;;;18.57;12.83;;;;;;;9.64;94.32;100451.44;10574163;28;20052;-76
2022/10/13 07:16:16;;;;;;;15.25;11.85;;;;;;;9.82;93.51;100457.13;10592525;28;20366;-76
2022/10/13 07:21:18;;;;;;;15.82;12.38;;;;;;;10.09;91.11;100450.44;10572556;28;20550;-75
2022/10/13 07:26:19;;;;;;;13.93;11.13;;;;;;;10.18;90.95;100448.47;10591881;28;20097;-75
2022/10/13 07:31:21;;;;;;;17.02;12.15;;;;;;;10.51;88.44;100439.81;10573390;28;20043;-75
2022/10/13 07:36:23;;;;;;;12.55;11.25;;;;;;;10.67;87.78;100439.41;10592639;28;20086;-76
2022/10/13 07:41:26;;;;;;;15.43;11.98;;;;;;;10.93;86.80;100433.47;10573935;28;20069;-76
2022/10/13 07:46:29;;;;;;;13.07;11.00;;;;;;;11.40;83.76;100423.41;10572778;28;20063;-75
2022/10/13 07:51:31;;;;;;;13.13;11.82;;;;;;;11.74;82.16;100420.63;10572655;28;20044;-74
2022/10/13 07:56:32;;;;;;;11.98;10.75;;;;;;;11.62;82.39;100413.97;10572297;28;20489;-75
2022/10/13 08:01:36;;;;;;;12.35;11.10;;;;;;;11.62;83.91;100414.81;10572836;28;20043;-76
2022/10/13 08:06:38;;;;;;;13.90;11.15;;;;;;;11.69;82.76;100401.50;10572899;28;20497;-75
2022/10/13 08:11:44;;;;;;;16.10;12.70;;;;;;;11.77;82.69;100400.31;10590680;28;20050;-75
2022/10/13 08:16:46;;;;;;;13.48;11.85;;;;;;;11.78;82.49;100401.19;10573524;28;20078;-74
2022/10/13 08:21:54;;;;;;;13.05;11.50;;;;;;;11.87;82.68;100395.69;10589425;28;20511;-74
2022/10/13 08:27:00;;;;;;;13.20;11.77;;;;;;;11.98;83.17;100387.41;10589498;28;20036;-76
2022/10/13 08:32:01;;;;;;;20.88;12.35;;;;;;;12.16;82.22;100378.06;10590055;28;20043;-76
2022/10/13 08:37:03;;;;;;;11.57;10.52;;;;;;;12.43;80.64;100378.91;10589453;28;20081;-74
2022/10/13 08:42:14;;;;;;;13.52;10.48;;;;;;;12.48;81.04;100382.25;10589077;28;20043;-76
2022/10/13 08:47:23;;;;;;;13.00;11.80;;;;;;;12.44;81.49;100370.97;10589625;28;20040;-75
2022/10/13 08:52:27;;;;;;;13.95;11.80;;;;;;;12.60;79.95;100356.31;10587836;28;20036;-75
2022/10/13 08:57:29;;;;;;;11.10;10.10;;;;;;;12.89;78.13;100365.00;10588332;28;20047;-74
2022/10/13 09:02:31;;;;;;;12.95;11.73;;;;;;;12.98;78.53;100362.03;10570045;28;20092;-75
2022/10/13 09:07:36;;;;;;;13.30;11.60;;;;;;;13.12;77.13;100354.47;10588388;28;20112;-76
2022/10/13 09:12:37;;;;;;;14.07;11.73;;;;;;;13.36;76.00;100357.97;10569431;28;20048;-75
2022/10/13 09:17:40;;;;;;;15.60;10.88;;;;;;;13.38;75.78;100350.00;10570081;28;20047;-75
2022/10/13 09:22:42;;;;;;;12.60;11.32;;;;;;;13.53;75.71;100343.28;10571111;28;20099;-75
2022/10/13 09:27:49;;;;;;;13.30;11.93;;;;;;;13.57;76.13;100339.59;10589197;28;20100;-76
2022/10/13 09:33:06;;;;;;;18.83;12.07;;;;;;;13.77;75.27;100333.53;10589035;28;20043;-76
2022/10/13 09:38:14;;;;;;;13.00;11.30;;;;;;;13.98;74.49;100335.28;10588815;28;20289;-75
2022/10/13 09:43:56;;;;;;;18.48;12.32;;;;;;;14.11;73.70;100325.06;10587222;28;20040;-76
2022/10/13 09:49:03;;;;;;;13.15;11.73;;;;;;;14.67;71.15;100321.81;10569515;28;20036;-74
2022/10/13 09:54:23;;;;;;;12.82;9.63;;;;;;;15.03;70.71;100319.31;10570843;28;20447;-75
2022/10/13 09:59:35;;;;;;;12.18;11.00;;;;;;;15.19;69.00;100329.22;10567510;28;20450;-75
2022/10/13 10:04:41;;;;;;;11.07;10.02;;;;;;;15.58;68.00;100330.00;10585414;28;20046;-75
2022/10/13 10:09:47;;;;;;;16.90;10.10;;;;;;;15.66;68.54;100310.22;10585711;28;20126;-75
2022/10/13 10:14:51;;;;;;;22.42;9.98;;;;;;;15.59;67.90;100302.56;10583958;28;20040;-70
2022/10/13 10:20:11;;;;;;;10.43;9.02;;;;;;;16.03;65.66;100310.16;10582213;28;20040;-70
2022/10/13 10:25:36;;;;;;;14.50;9.55;;;;;;;16.03;65.80;100299.53;10582515;28;20058;-69
2022/10/13 10:30:47;;;;;;;11.98;9.43;;;;;;;15.99;68.19;100302.44;10582797;28;20040;-70
2022/10/13 10:36:15;;;;;;;10.40;9.40;;;;;;;16.07;66.93;100295.81;10582369;28;20112;-69
2022/10/13 10:41:39;;;;;;;14.95;10.52;;;;;;;16.06;66.55;100294.06;10582264;28;20058;-70
2022/10/13 10:46:49;;;;;;;11.10;9.98;;;;;;;16.15;66.54;100288.28;10582626;28;20035;-69
2022/10/13 10:51:51;;;;;;;10.48;9.30;;;;;;;16.54;65.81;100287.19;10563824;28;20090;-70
2022/10/13 10:56:59;;;;;;;14.75;9.05;;;;;;;16.71;64.65;100274.84;10581638;28;20035;-69
2022/10/13 11:02:06;;;;;;;11.68;9.43;;;;;;;16.79;64.91;100254.09;10582930;28;20131;-70
2022/10/13 11:07:23;;;;;;;9.10;8.20;;;;;;;17.43;62.72;100249.66;10571140;28;20047;-69
2022/10/13 11:12:45;;;;;;;15.90;8.20;;;;;;;17.94;60.62;100237.84;10581207;28;20043;-69
2022/10/13 11:17:46;;;;;;;8.50;7.22;;;;;;;17.79;60.13;100233.41;10563233;28;20035;-69
2022/10/13 11:22:57;;;;;;;11.82;7.85;;;;;;;17.99;58.55;100219.81;10581019;28;20382;-71
2022/10/13 11:27:59;;;;;;;8.90;7.18;;;;;;;18.11;57.85;100213.75;10563203;28;20493;-70
2022/10/13 11:33:08;;;;;;;7.22;6.53;;;;;;;17.96;59.01;100198.72;10585638;28;20067;-71
2022/10/13 11:38:31;;;;;;;7.10;6.40;;;;;;;17.98;58.46;100191.50;10589265;28;20043;-70
2022/10/13 11:43:52;;;;;;;10.75;6.85;;;;;;;18.22;56.64;100181.19;10589336;28;20089;-69
2022/10/13 11:49:00;;;;;;;6.32;5.55;;;;;;;18.89;54.82;100190.31;10570444;28;20043;-70
2022/10/13 11:54:04;;;;;;;7.40;4.70;;;;;;;19.08;54.39;100184.66;10589488;28;20044;-70
2022/10/13 11:59:18;;;;;;;5.70;4.80;;;;;;;19.05;53.97;100178.69;10590329;28;20039;-70
2022/10/13 12:04:22;;;;;;;5.22;4.72;;;;;;;18.96;53.85;100174.81;10588612;28;20420;-70
2022/10/13 12:09:24;;;;;;;7.00;4.10;;;;;;;18.93;54.84;100169.66;10588336;28;20039;-70
2022/10/13 12:14:31;;;;;;;10.30;5.35;;;;;;;18.46;56.78;100161.97;10588483;28;20043;-69
2022/10/13 12:19:32;;;;;;;12.48;6.72;;;;;;;18.66;55.78;100170.44;10587670;28;20408;-71
2022/10/13 12:24:34;;;;;;;10.05;6.72;;;;;;;18.34;57.86;100168.94;10570161;28;20484;-70
2022/10/13 12:29:39;;;;;;;8.90;6.38;;;;;;;17.90;58.04;100173.34;10587137;28;20031;-69
2022/10/13 12:34:40;;;;;;;7.40;6.55;;;;;;;18.01;57.47;100170.03;10589206;28;20044;-70
2022/10/13 12:39:42;;;;;;;15.90;7.10;;;;;;;17.86;58.25;100165.63;10586582;28;20039;-69
2022/10/13 12:44:44;;;;;;;12.98;6.07;;;;;;;17.60;58.94;100162.69;10586192;28;20042;-70
2022/10/13 12:49:46;;;;;;;6.05;5.15;;;;;;;17.87;57.97;100162.03;10586379;28;20089;-70
2022/10/13 12:54:55;;;;;;;8.20;4.88;;;;;;;18.00;57.88;100148.84;10568582;28;20386;-71
2022/10/13 12:59:56;;;;;;;9.35;3.70;;;;;;;18.08;57.32;100150.09;10586089;28;20409;-70
2022/10/13 13:04:58;;;;;;;6.90;4.40;;;;;;;18.04;57.16;100156.53;10566638;28;20067;-70
2022/10/13 13:10:06;;;;;;;5.97;3.67;;;;;;;18.14;56.10;100152.38;10567132;28;20047;-70
2022/10/13 13:15:18;;;;;;;9.80;4.13;;;;;;;17.97;56.13;100152.53;10584886;28;20066;-70
2022/10/13 13:20:31;;;;;;;5.20;3.38;;;;;;;17.79;58.36;100162.47;10566227;28;20047;-70
2022/10/13 13:25:33;;;;;;;14.07;5.13;;;;;;;18.01;56.54;100148.75;10567135;28;20047;-69
2022/10/13 13:30:34;;;;;;;9.63;6.22;;;;;;;17.90;58.01;100143.25;10585052;28;20047;-71
2022/10/13 13:35:36;;;;;;;7.43;4.97;;;;;;;17.88;57.36;100146.00;10584685;28;20043;-71
2022/10/13 13:40:38;;;;;;;7.05;5.03;;;;;;;17.94;57.70;100146.56;10566065;28;20093;-69
2022/10/13 13:45:39;;;;;;;9.45;5.78;;;;;;;17.80;57.74;100139.44;10583518;28;20059;-70
2022/10/13 13:50:41;;;;;;;7.53;4.75;;;;;;;17.93;56.79;100139.53;10583732;28;20101;-70
2022/10/13 13:55:44;;;;;;;10.23;5.35;;;;;;;17.75;58.16;100136.16;10582971;28;20580;-70
2022/10/13 14:00:49;;;;;;;10.25;5.18;;;;;;;17.94;57.42;100136.78;10583626;28;20047;-70
2022/10/13 14:05:51;;;;;;;8.55;5.18;;;;;;;17.84;58.39;100132.94;10564561;28;20048;-70
2022/10/13 14:10:52;;;;;;;8.52;5.60;;;;;;;17.72;59.79;100115.06;10583961;28;20040;-70
2022/10/13 14:15:57;;;;;;;9.85;5.18;;;;;;;18.01;57.56;100110.66;10583063;28;20039;-71
2022/10/13 14:21:04;;;;;;;5.68;5.05;;;;;;;17.89;58.38;100107.81;10564835;28;20386;-69
2022/10/13 14:26:08;;;;;;;5.63;5.03;;;;;;;17.87;58.65;100098.22;10582994;28;20039;-70
2022/10/13 14:31:10;;;;;;;6.10;5.43;;;;;;;17.62;59.84;100104.13;10583413;28;20474;-69
2022/10/13 14:36:14;;;;;;;6.38;5.43;;;;;;;17.16;61.96;100112.13;10582953;28;20044;-70
2022/10/13 14:41:16;;;;;;;10.98;6.57;;;;;;;17.18;60.34;100110.25;10581843;28;20466;-70
2022/10/13 14:46:19;;;;;;;8.65;6.38;;;;;;;16.97;61.96;100099.06;10563886;28;20055;-70
2022/10/13 14:51:21;;;;;;;6.72;5.63;;;;;;;16.81;62.29;100096.41;10582001;28;20035;-70
2022/10/13 14:56:25;;;;;;;6.78;6.18;;;;;;;16.62;64.19;100101.03;10582185;28;20039;-70
2022/10/13 15:01:27;;;;;;;9.20;6.95;;;;;;;16.47;65.53;100099.19;10583410;28;20400;-70
2022/10/13 15:06:30;;;;;;;7.28;6.10;;;;;;;16.53;65.46;100097.06;10568086;28;20101;-72
2022/10/13 15:11:31;;;;;;;6.38;5.75;;;;;;;16.33;66.72;100095.50;10592723;28;20474;-70
2022/10/13 15:16:33;;;;;;;5.72;5.10;;;;;;;16.19;67.48;100083.94;10592501;28;20082;-71
2022/10/13 15:21:35;;;;;;;6.20;5.63;;;;;;;16.02;68.45;100080.38;10591645;28;20069;-72
2022/10/13 15:26:37;;;;;;;7.03;6.32;;;;;;;15.88;69.04;100075.81;10591688;28;20493;-72
2022/10/13 15:31:39;;;;;;;7.60;6.90;;;;;;;15.81;69.97;100070.94;10589896;28;20559;-71
2022/10/13 15:36:40;;;;;;;9.82;8.25;;;;;;;15.69;72.34;100061.84;10588923;28;20063;-71
2022/10/13 15:41:42;;;;;;;8.10;7.30;;;;;;;15.57;72.64;100068.59;10589023;28;20040;-71
2022/10/13 15:46:43;;;;;;;7.82;7.05;;;;;;;15.38;73.84;100078.44;10554408;28;20047;-71
2022/10/13 15:52:05;;;;;;;9.13;6.38;;;;;;;15.17;74.97;100072.41;10590227;28;20039;-71
2022/10/13 15:57:07;;;;;;;8.23;7.43;;;;;;;15.03;75.34;100062.50;10589175;28;20043;-70
2022/10/13 16:02:09;;;;;;;7.60;6.88;;;;;;;14.86;76.71;100065.13;10570228;28;20516;-71
2022/10/13 16:07:11;;;;;;;9.43;8.55;;;;;;;14.73;77.74;100070.16;10587678;28;20054;-71
2022/10/13 16:12:12;;;;;;;8.88;8.13;;;;;;;14.58;78.70;100066.47;10585835;28;20046;-71
2022/10/13 16:17:14;;;;;;;9.98;8.20;;;;;;;14.50;79.37;100065.13;10520049;22;20045;-69
2022/10/13 16:22:16;;;;;;;14.43;9.52;;;;;;;14.45;80.04;100075.88;10480736;28;20052;-69
2022/10/13 16:27:18;;;;;;;10.18;9.27;;;;;;;14.26;80.87;100061.81;10476774;28;20041;-69
2022/10/13 16:32:20;;;;;;;9.82;8.93;;;;;;;14.19;81.50;100068.31;10494578;28;20051;-70
2022/10/13 16:37:22;;;;;;;10.73;9.82;;;;;;;13.99;82.29;100067.44;10501536;28;20560;-70
2022/10/13 16:42:24;;;;;;;10.60;9.63;;;;;;;13.89;83.72;100081.97;10503106;28;20071;-70
2022/10/13 16:47:26;;;;;;;11.85;10.38;;;;;;;13.68;85.06;100082.91;10484663;28;20445;-69
2022/10/13 16:52:28;;;;;;;14.20;10.15;;;;;;;13.55;86.06;100093.19;10483958;28;20064;-69
2022/10/13 16:57:30;;;;;;;11.27;10.40;;;;;;;13.43;86.62;100096.34;10483520;28;20037;-69
2022/10/13 17:02:33;;;;;;;11.75;10.73;;;;;;;13.43;87.00;100098.97;10501031;28;20056;-69
2022/10/13 17:07:34;;;;;;;12.40;11.40;;;;;;;13.37;88.74;100097.47;10503758;28;20043;-69
2022/10/13 17:12:36;;;;;;;13.30;11.93;;;;;;;13.31;88.67;100109.13;10500796;28;20052;-69
2022/10/13 17:17:37;;;;;;;14.48;13.23;;;;;;;13.31;89.19;100114.41;10500394;28;20045;-69
2022/10/13 17:22:39;;;;;;;11.77;10.77;;;;;;;13.12;89.57;100116.91;10482732;28;20107;-69
2022/10/13 17:27:41;;;;;;;13.48;12.27;;;;;;;13.05;90.26;100125.13;10502768;28;20048;-68
2022/10/13 17:32:43;;;;;;;12.27;11.18;;;;;;;12.93;91.37;100126.50;10481817;28;20048;-70
2022/10/13 17:37:48;;;;;;;12.70;11.68;;;;;;;12.77;91.98;100118.34;10499972;28;20083;-69
2022/10/13 17:42:51;;;;;;;;;;;;;;;12.63;92.41;100129.44;10500534;28;20032;-70
2022/10/13 17:47:53;;;;;;;13.35;11.93;;;;;;;12.52;92.80;100125.47;10501785;28;19920;-70
2022/10/13 17:52:59;;;;;;;12.27;11.07;;;;;;;12.41;92.49;100123.25;10499799;28;20049;-69
2022/10/13 17:58:00;;;;;;;15.48;12.60;;;;;;;12.29;93.27;100126.34;10499184;28;20566;-69
2022/10/13 18:03:02;;;;;;;15.55;14.30;;;;;;;12.12;94.88;100132.22;10498624;28;20044;-70
2022/10/13 18:08:04;;;;;;;14.75;13.63;;;;;;;12.07;95.47;100127.13;10498248;28;20040;-69
2022/10/13 18:13:09;;;;;;;16.13;14.55;;;;;;;12.07;96.19;100126.28;10502897;28;20040;-69
2022/10/13 18:18:11;;;;;;;14.85;13.73;;;;;;;12.09;96.01;100113.91;10498909;28;20052;-69
2022/10/13 18:23:13;;;;;;;14.52;13.43;;;;;;;12.07;95.68;100116.59;10498622;28;20048;-68
2022/10/13 18:28:15;;;;;;;14.70;13.48;;;;;;;12.07;95.96;100121.84;10497787;28;20068;-69
2022/10/13 18:33:17;;;;;;;15.20;14.00;;;;;;;12.05;96.59;100117.59;10504798;28;20079;-69
2022/10/13 18:38:18;;;;;;;19.88;15.13;;;;;;;12.08;96.55;100115.66;10480214;28;20094;-69
2022/10/13 18:43:20;;;;;;;17.35;15.75;;;;;;;12.12;97.37;100119.91;10505030;28;20056;-69
2022/10/13 18:48:22;;;;;;;18.67;16.88;;;;;;;12.24;97.26;100112.47;10505949;28;20060;-69
2022/10/13 18:53:23;;;;;;;17.08;15.73;;;;;;;12.36;96.20;100110.25;10509376;28;20044;-69
2022/10/13 18:58:25;;;;;;;17.85;16.25;;;;;;;12.32;96.32;100107.78;10506130;28;20040;-69
2022/10/13 19:03:27;;;;;;;18.85;16.95;;;;;;;12.28;96.76;100099.13;10506666;28;20048;-69
2022/10/13 19:08:29;;;;;;;18.15;16.30;;;;;;;12.22;96.47;100090.59;10505678;28;20040;-69
2022/10/13 19:13:31;;;;;;;20.33;17.20;;;;;;;12.07;96.69;100090.25;10505076;28;20045;-69
2022/10/13 19:18:33;;;;;;;21.38;18.23;;;;;;;11.90;97.62;100090.00;10507793;28;20207;-70
2022/10/13 19:23:35;;;;;;;18.40;16.98;;;;;;;11.75;98.45;100093.16;10505791;28;20175;-70
2022/10/13 19:28:38;;;;;;;20.63;18.52;;;;;;;11.61;98.92;100094.50;10504390;28;20032;-70
2022/10/13 19:33:41;;;;;;;21.02;18.90;;;;;;;11.54;99.66;100081.59;10504501;28;20521;-70
2022/10/13 19:38:45;;;;;;;20.90;19.15;;;;;;;11.45;100.00;100081.94;10508421;28;20055;-70
2022/10/13 19:43:47;;;;;;;22.02;20.00;;;;;;;11.46;99.62;100097.66;10506638;28;20040;-70
2022/10/13 19:48:48;;;;;;;22.13;19.83;;;;;;;11.41;100.00;100085.56;10506435;28;20044;-70
2022/10/13 19:53:50;;;;;;;21.13;19.33;;;;;;;11.34;99.65;100095.47;10503660;28;20045;-70
2022/10/13 19:58:53;;;;;;;22.75;20.05;;;;;;;11.19;100.00;100095.97;10506075;28;20044;-70
2022/10/13 20:03:55;;;;;;;27.48;19.50;;;;;;;11.07;100.00;100097.25;10505845;28;20040;-70
2022/10/13 20:08:58;;;;;;;21.55;19.80;;;;;;;11.00;100.00;100101.84;10504284;28;20068;-70
2022/10/13 20:14:01;;;;;;;21.30;19.60;;;;;;;10.93;100.00;100104.72;10505007;28;20043;-68
2022/10/13 20:19:04;;;;;;;20.85;19.23;;;;;;;10.90;100.00;100112.72;10504299;28;20074;-70
2022/10/13 20:24:06;;;;;;;20.83;19.10;;;;;;;10.82;100.00;100103.28;10504554;28;20567;-69
2022/10/13 20:29:07;;;;;;;20.15;18.52;;;;;;;10.87;100.00;100105.78;10484932;28;20528;-70
2022/10/13 20:34:10;;;;;;;27.45;20.90;;;;;;;11.00;100.00;100107.09;10506973;28;20109;-70
2022/10/13 20:39:11;;;;;;;19.35;17.95;;;;;;;10.74;100.00;100107.06;10503777;28;20090;-70
2022/10/13 20:44:13;;;;;;;21.75;20.00;;;;;;;10.64;100.00;100101.25;10504984;28;20166;-70
2022/10/13 20:49:15;;;;;;;20.70;18.75;;;;;;;10.64;100.00;100108.28;10501775;28;20050;-70
2022/10/13 20:54:16;;;;;;;23.65;21.52;;;;;;;10.67;100.00;100105.53;10483276;28;20387;-70
2022/10/13 20:59:18;;;;;;;20.02;18.33;;;;;;;10.63;100.00;100112.66;10501383;28;20072;-70
2022/10/13 21:04:19;;;;;;;19.38;17.88;;;;;;;10.76;100.00;100107.91;10502793;28;20052;-70
2022/10/13 21:09:21;;;;;;;21.52;19.33;;;;;;;10.88;100.00;100107.47;10500244;28;20497;-70
2022/10/13 21:14:23;;;;;;;21.38;19.67;;;;;;;10.86;100.00;100104.91;10492339;28;20067;-70
2022/10/13 21:19:25;;;;;;;21.70;19.58;;;;;;;10.66;100.00;100098.56;10500178;28;20044;-71
2022/10/13 21:24:26;;;;;;;25.67;23.00;;;;;;;10.74;100.00;100101.81;10501461;28;20041;-71
2022/10/13 21:29:28;;;;;;;22.23;20.05;;;;;;;10.46;100.00;100096.56;10502480;28;20040;-71
2022/10/13 21:34:30;;;;;;;21.88;19.88;;;;;;;10.46;100.00;100097.41;10499574;28;20079;-71
2022/10/13 21:39:31;;;;;;;20.33;18.73;;;;;;;10.27;100.00;100088.34;10499422;28;20041;-71
2022/10/13 21:44:33;;;;;;;24.05;21.83;;;;;;;10.41;100.00;100086.19;10500179;28;20104;-71
2022/10/13 21:49:38;;;;;;;23.52;21.42;;;;;;;10.29;100.00;100089.16;10501774;28;20036;-71
2022/10/13 21:54:40;;;;;;;21.83;19.98;;;;;;;10.21;100.00;100088.50;10482823;28;20044;-70
2022/10/13 21:59:41;;;;;;;24.05;21.67;;;;;;;10.34;100.00;100089.88;10499297;28;20053;-70
2022/10/13 22:04:43;;;;;;;22.45;20.55;;;;;;;10.27;100.00;100093.59;10481687;28;20052;-70
2022/10/13 22:09:44;;;;;;;24.40;22.00;;;;;;;10.13;100.00;100077.34;10482434;28;20067;-70
2022/10/13 22:14:46;;;;;;;27.35;22.35;;;;;;;10.05;100.00;100082.84;10508488;22;20044;-73
2022/10/13 22:19:51;;;;;;;23.75;21.85;;;;;;;9.89;100.00;100079.78;10506168;28;20040;-73
2022/10/13 22:24:53;;;;;;;25.88;23.55;;;;;;;9.88;100.00;100070.19;10540763;28;20106;-74
2022/10/13 22:29:55;;;;;;;25.65;22.98;;;;;;;10.04;100.00;100060.94;10541673;28;20032;-74
2022/10/13 22:34:57;;;;;;;23.75;21.42;;;;;;;10.06;100.00;100056.53;10523479;28;20497;-74
2022/10/13 22:39:59;;;;;;;23.65;21.42;;;;;;;10.18;100.00;100059.69;10541553;28;20056;-74
2022/10/13 22:45:01;;;;;;;22.95;21.08;;;;;;;10.29;100.00;100060.25;10541088;28;20036;-73
2022/10/13 22:50:04;;;;;;;24.58;22.25;;;;;;;10.16;100.00;100062.38;10540896;28;20032;-73
2022/10/13 22:55:06;;;;;;;26.95;21.40;;;;;;;10.17;100.00;100065.84;10522508;28;20102;-73